Time;durP1;ratioP1;P1;durP2;ratioP2;P2;SDS_P1;SDS_P2;PMS_P1;PMS_P2;Temp;Humidity;BMP_temperature;BMP_pressure;BME280_temperature;BME280_humidity;BME280_pressure;Samples;Min_cycle;Max_cycle;Signal;HPM_P1;HPM_P2
2022/12/11 00:01:27;;;;;;;59.30;27.20;;;;;;;1.46;100.00;100991.06;5048378;28;20025;-73
2022/12/11 00:03:52;;;;;;;54.80;26.60;;;;;;;1.46;100.00;100998.84;5047647;28;20025;-73
2022/12/11 00:06:21;;;;;;;55.58;25.63;;;;;;;1.48;100.00;100997.25;5042649;28;20029;-73
2022/12/11 00:08:47;;;;;;;54.75;27.45;;;;;;;1.46;100.00;100998.84;5057289;28;20086;-73
2022/12/11 00:11:14;;;;;;;60.42;28.45;;;;;;;1.47;100.00;100998.94;5036299;28;20440;-72
2022/12/11 00:13:40;;;;;;;51.47;24.88;;;;;;;1.49;100.00;100997.31;5035376;28;20025;-72
2022/12/11 00:16:06;;;;;;;58.63;27.00;;;;;;;1.50;100.00;100995.63;5037551;28;20037;-73
2022/12/11 00:18:31;;;;;;;51.03;26.67;;;;;;;1.50;100.00;100990.44;5062165;28;20028;-71
2022/12/11 00:21:01;;;;;;;52.45;26.08;;;;;;;1.51;100.00;100984.44;5045105;28;20064;-72
2022/12/11 00:23:26;;;;;;;56.25;27.38;;;;;;;1.50;100.00;100990.44;5044217;28;20052;-73
2022/12/11 00:25:52;;;;;;;57.25;27.75;;;;;;;1.52;100.00;100994.00;5057619;28;20049;-72
2022/12/11 00:28:20;;;;;;;56.90;27.13;;;;;;;1.50;100.00;100991.31;5058246;28;20025;-73
2022/12/11 00:30:45;;;;;;;49.55;25.92;;;;;;;1.56;100.00;100993.38;5054639;28;20024;-72
2022/12/11 00:33:12;;;;;;;54.53;28.02;;;;;;;1.54;100.00;100997.56;5062050;28;20047;-72
2022/12/11 00:35:39;;;;;;;51.40;26.30;;;;;;;1.56;100.00;100985.59;5058054;28;20032;-73
2022/12/11 00:38:05;;;;;;;52.00;27.48;;;;;;;1.55;100.00;100989.00;5051485;28;20055;-72
2022/12/11 00:40:33;;;;;;;49.25;26.65;;;;;;;1.51;100.00;100989.63;5039894;28;20037;-72
2022/12/11 00:42:59;;;;;;;59.22;28.33;;;;;;;1.52;100.00;100994.00;5048101;28;20381;-73
2022/12/11 00:45:24;;;;;;;52.47;27.23;;;;;;;1.51;100.00;100992.22;5051182;28;20060;-73
2022/12/11 00:47:49;;;;;;;47.30;25.95;;;;;;;1.45;100.00;100987.59;5044201;28;20033;-72
2022/12/11 00:50:15;;;;;;;49.72;24.70;;;;;;;1.51;100.00;100987.03;5042990;28;20025;-73
2022/12/11 00:52:40;;;;;;;50.28;27.63;;;;;;;1.47;100.00;100991.16;5050934;28;20380;-73
2022/12/11 00:55:06;;;;;;;49.13;26.05;;;;;;;1.54;100.00;100984.59;5044037;28;20029;-73
2022/12/11 00:57:31;;;;;;;49.25;25.88;;;;;;;1.56;100.00;100990.78;5043065;28;20116;-73
2022/12/11 00:59:57;;;;;;;51.55;25.05;;;;;;;1.54;100.00;100979.41;5045110;28;20493;-73
2022/12/11 01:02:22;;;;;;;50.67;24.73;;;;;;;1.59;100.00;100983.16;5048361;28;20063;-72
2022/12/11 01:04:47;;;;;;;45.70;23.45;;;;;;;1.55;100.00;100981.22;5052923;28;20063;-73
2022/12/11 01:07:12;;;;;;;45.00;24.73;;;;;;;1.53;100.00;100982.81;5042465;28;20024;-72
2022/12/11 01:12:22;;;;;;;46.92;22.83;;;;;;;1.52;100.00;100986.22;5036233;28;20037;-72
2022/12/11 01:14:47;;;;;;;45.78;22.98;;;;;;;1.57;100.00;100986.47;5045955;28;20021;-73
2022/12/11 01:17:12;;;;;;;40.10;22.05;;;;;;;1.50;100.00;100990.44;5048274;28;20112;-72
2022/12/11 01:19:38;;;;;;;44.00;22.33;;;;;;;1.44;100.00;100982.28;5046674;28;20111;-72
2022/12/11 01:22:03;;;;;;;48.00;23.30;;;;;;;1.48;100.00;100982.56;5052041;28;20116;-71
2022/12/11 01:24:28;;;;;;;43.83;23.08;;;;;;;1.45;100.00;100981.50;5038714;28;20374;-72
2022/12/11 01:26:54;;;;;;;45.42;21.60;;;;;;;1.48;100.00;100987.75;5069308;28;20147;-72
2022/12/11 01:29:19;;;;;;;40.47;22.02;;;;;;;1.51;100.00;100992.22;5046773;28;20028;-73
2022/12/11 01:31:44;;;;;;;42.55;22.13;;;;;;;1.43;100.00;100988.31;5041559;28;20033;-73
2022/12/11 01:34:10;;;;;;;43.22;22.75;;;;;;;1.42;100.00;100991.72;5043106;28;20036;-73
2022/12/11 01:36:35;;;;;;;42.38;22.55;;;;;;;1.44;100.00;100983.22;5037144;28;20036;-73
2022/12/11 01:39:00;;;;;;;47.75;22.58;;;;;;;1.41;100.00;100985.63;5051610;28;20085;-72
2022/12/11 01:41:26;;;;;;;44.03;21.05;;;;;;;1.34;100.00;100989.59;5050111;28;20124;-74
2022/12/11 01:44:06;;;;;;;41.22;20.90;;;;;;;1.29;100.00;100980.66;5063745;28;20082;-73
2022/12/11 01:46:34;;;;;;;41.72;20.58;;;;;;;1.25;100.00;100989.06;5061594;28;20115;-73
2022/12/11 01:49:03;;;;;;;38.72;20.75;;;;;;;1.26;100.00;100985.69;5053368;28;20020;-73
2022/12/11 01:51:32;;;;;;;37.03;19.67;;;;;;;1.25;100.00;100999.44;5045380;28;20078;-72
2022/12/11 01:54:04;;;;;;;46.22;21.58;;;;;;;1.24;100.00;100982.09;5050224;28;20108;-73
2022/12/11 01:56:33;;;;;;;41.03;20.90;;;;;;;1.17;100.00;100985.16;5046002;28;20024;-73
2022/12/11 01:59:06;;;;;;;38.40;19.73;;;;;;;1.16;100.00;100985.94;5043145;28;20576;-71
2022/12/11 02:02:09;;;;;;;40.30;20.48;;;;;;;1.23;100.00;100985.47;5042585;28;20036;-73
2022/12/11 02:04:37;;;;;;;39.05;18.83;;;;;;;1.21;100.00;100986.19;5043891;28;20473;-73
2022/12/11 02:07:03;;;;;;;36.55;19.00;;;;;;;1.26;100.00;100983.09;5048725;28;20111;-73
2022/12/11 02:09:32;;;;;;;37.67;20.38;;;;;;;1.25;100.00;100986.47;5039474;28;20116;-72
2022/12/11 02:12:21;;;;;;;41.80;21.65;;;;;;;1.24;100.00;100982.09;5049388;28;20111;-73
2022/12/11 02:15:07;;;;;;;41.30;20.73;;;;;;;1.21;100.00;100981.91;5037128;28;20501;-72
2022/12/11 02:17:39;;;;;;;43.08;21.83;;;;;;;1.22;100.00;100993.16;5048651;28;20423;-70
2022/12/11 02:20:24;;;;;;;43.92;19.13;;;;;;;1.18;100.00;100986.91;5047356;28;20084;-71
2022/12/11 02:23:11;;;;;;;41.13;20.63;;;;;;;1.22;100.00;100988.91;5047099;28;20029;-73
2022/12/11 02:26:10;;;;;;;38.15;19.70;;;;;;;1.20;100.00;100985.31;5050997;28;20035;-72
2022/12/11 02:28:54;;;;;;;40.42;20.15;;;;;;;1.20;100.00;100974.06;5045618;28;20089;-72
2022/12/11 02:31:26;;;;;;;39.33;19.10;;;;;;;1.18;100.00;100976.53;5057300;28;20053;-73
2022/12/11 02:34:00;;;;;;;46.10;20.40;;;;;;;1.20;100.00;100974.06;5044533;28;20388;-72
2022/12/11 02:36:31;;;;;;;43.00;21.80;;;;;;;1.27;100.00;100976.19;5052778;28;20038;-74
2022/12/11 02:39:00;;;;;;;49.67;22.27;;;;;;;1.21;100.00;100976.72;5053218;28;20021;-73
2022/12/11 02:41:27;;;;;;;38.05;20.15;;;;;;;1.23;100.00;100975.09;5050300;28;20104;-73
2022/12/11 02:43:55;;;;;;;44.50;21.58;;;;;;;1.19;100.00;100975.75;5045383;28;20033;-73
2022/12/11 02:46:23;;;;;;;49.95;22.65;;;;;;;1.19;100.00;100973.16;5049077;28;20025;-72
2022/12/11 02:48:50;;;;;;;48.03;21.65;;;;;;;1.18;100.00;100976.53;5051048;28;20035;-73
2022/12/11 02:51:20;;;;;;;49.95;21.63;;;;;;;1.18;100.00;100966.16;5050613;28;20428;-73
2022/12/11 02:53:47;;;;;;;42.72;20.48;;;;;;;1.14;100.00;100965.13;5041215;28;20028;-73
2022/12/11 02:56:23;;;;;;;44.58;20.70;;;;;;;1.12;100.00;100961.53;5048606;28;20025;-73
2022/12/11 02:58:54;;;;;;;48.70;21.75;;;;;;;1.13;100.00;100957.28;5052440;28;20090;-72
2022/12/11 03:01:20;;;;;;;43.60;20.60;;;;;;;1.12;100.00;100955.47;5048148;28;20112;-74
2022/12/11 03:03:46;;;;;;;47.38;22.17;;;;;;;1.11;100.00;100946.81;5051817;28;20536;-73
2022/12/11 03:06:17;;;;;;;48.85;20.73;;;;;;;1.07;100.00;100942.28;5055467;28;20100;-73
2022/12/11 03:08:43;;;;;;;45.55;19.67;;;;;;;1.06;100.00;100955.13;5051008;28;20120;-72
2022/12/11 03:11:10;;;;;;;53.67;23.45;;;;;;;1.13;100.00;100944.31;5051635;28;20029;-73
2022/12/11 03:13:37;;;;;;;48.50;23.05;;;;;;;1.13;100.00;100942.59;5052922;28;20111;-74
2022/12/11 03:16:18;;;;;;;51.45;22.85;;;;;;;1.16;100.00;100939.28;5048147;28;20447;-73
2022/12/11 03:18:53;;;;;;;50.67;22.15;;;;;;;1.15;100.00;100938.41;5051337;28;20045;-73
2022/12/11 03:21:27;;;;;;;48.75;21.60;;;;;;;1.15;100.00;100941.00;5048716;28;20028;-73
2022/12/11 03:24:03;;;;;;;47.90;20.75;;;;;;;1.08;100.00;100937.97;5036726;28;20021;-73
2022/12/11 03:26:34;;;;;;;43.08;20.88;;;;;;;1.10;100.00;100939.84;5051210;28;20144;-73
2022/12/11 03:29:07;;;;;;;42.28;20.35;;;;;;;1.15;100.00;100934.91;5052630;28;20036;-74
2022/12/11 03:31:42;;;;;;;46.33;21.30;;;;;;;1.20;100.00;100932.59;5055424;28;20380;-73
2022/12/11 03:34:21;;;;;;;46.95;20.00;;;;;;;1.13;100.00;100931.34;5049325;28;20115;-73
2022/12/11 03:36:50;;;;;;;45.30;19.85;;;;;;;1.15;100.00;100928.03;5051874;28;20366;-73
2022/12/11 03:39:29;;;;;;;42.35;20.08;;;;;;;1.11;100.00;100935.53;5050476;28;20027;-73
2022/12/11 03:41:56;;;;;;;36.88;18.25;;;;;;;1.13;100.00;100944.31;5049816;28;20064;-74
2022/12/11 03:44:23;;;;;;;44.40;21.15;;;;;;;1.12;100.00;100932.16;5052198;28;20050;-74
2022/12/11 03:46:51;;;;;;;43.00;20.77;;;;;;;1.14;100.00;100938.31;5048801;28;20522;-73
2022/12/11 03:49:23;;;;;;;41.15;18.23;;;;;;;1.14;100.00;100943.47;5041632;28;20025;-74
2022/12/11 03:51:51;;;;;;;41.08;19.73;;;;;;;1.21;100.00;100937.84;5050428;28;20384;-72
2022/12/11 03:54:18;;;;;;;47.35;19.90;;;;;;;1.19;100.00;100931.69;5056085;28;20050;-72
2022/12/11 03:56:45;;;;;;;38.92;20.55;;;;;;;1.18;100.00;100935.06;5055295;28;20025;-73
2022/12/11 03:59:11;;;;;;;45.72;19.33;;;;;;;1.13;100.00;100926.16;5051765;28;20049;-74
2022/12/11 04:01:36;;;;;;;40.15;19.55;;;;;;;1.13;100.00;100931.34;5042997;28;20099;-74
2022/12/11 04:04:02;;;;;;;40.83;18.10;;;;;;;1.09;100.00;100924.22;5055278;28;20035;-74
2022/12/11 04:06:27;;;;;;;42.78;19.98;;;;;;;1.17;100.00;100922.94;5065780;28;20216;-74
2022/12/11 04:08:53;;;;;;;40.55;19.25;;;;;;;1.22;100.00;100918.91;5045745;28;20045;-73
2022/12/11 04:11:33;;;;;;;44.40;19.98;;;;;;;1.24;100.00;100919.88;5051898;28;20024;-73
2022/12/11 04:16:54;;;;;;;39.33;18.27;;;;;;;1.21;100.00;100922.31;5047850;28;20446;-75
2022/12/11 04:24:49;;;;;;;41.08;19.02;;;;;;;1.24;100.00;100909.50;5048421;28;20166;-73
2022/12/11 04:27:47;;;;;;;37.00;17.27;;;;;;;1.20;100.00;100904.09;5036370;28;20532;-73
2022/12/11 04:30:02;;;;;;;36.53;17.67;;;;;;;1.17;100.00;100897.03;5047106;28;20040;-73
2022/12/11 04:32:27;;;;;;;44.53;18.13;;;;;;;1.14;100.00;100896.84;5032914;28;20040;-73
2022/12/11 04:34:52;;;;;;;41.47;17.80;;;;;;;1.13;100.00;100902.84;5044749;28;20100;-73
2022/12/11 04:37:18;;;;;;;37.80;18.80;;;;;;;1.16;100.00;100906.47;5034507;28;20067;-73
2022/12/11 04:39:43;;;;;;;40.45;17.90;;;;;;;1.14;100.00;100910.69;5045193;28;20057;-73
2022/12/11 04:42:08;;;;;;;37.60;17.05;;;;;;;1.16;100.00;100915.97;5049486;28;20026;-73
2022/12/11 04:44:34;;;;;;;35.38;16.73;;;;;;;1.09;100.00;100914.72;5043453;28;20476;-73
2022/12/11 04:46:59;;;;;;;36.67;16.77;;;;;;;1.12;100.00;100919.19;5044634;28;20427;-74
2022/12/11 04:49:24;;;;;;;34.63;15.48;;;;;;;1.15;100.00;100919.34;5055979;28;20032;-74
2022/12/11 04:51:50;;;;;;;36.88;16.48;;;;;;;1.11;100.00;100922.59;5050778;28;20017;-73
2022/12/11 04:54:15;;;;;;;37.20;15.43;;;;;;;1.15;100.00;100925.47;5050750;28;20025;-73
2022/12/11 04:56:40;;;;;;;34.63;15.60;;;;;;;1.10;100.00;100920.78;5046648;28;20380;-73
2022/12/11 04:59:06;;;;;;;33.38;14.43;;;;;;;1.11;100.00;100910.53;5042307;28;20105;-72
2022/12/11 05:01:31;;;;;;;27.77;14.07;;;;;;;1.13;100.00;100918.41;5049570;28;20052;-72
2022/12/11 05:03:58;;;;;;;28.98;13.75;;;;;;;1.09;100.00;100921.63;5043416;28;20055;-73
2022/12/11 05:06:23;;;;;;;32.30;13.95;;;;;;;1.04;100.00;100915.28;5045394;28;20025;-72
2022/12/11 05:08:49;;;;;;;29.15;13.60;;;;;;;1.07;100.00;100915.44;5047168;28;20491;-73
2022/12/11 05:11:15;;;;;;;30.30;14.23;;;;;;;1.07;100.00;100913.78;5053466;28;20377;-73
2022/12/11 05:13:40;;;;;;;28.80;13.43;;;;;;;1.04;100.00;100921.34;5045733;28;20021;-71
2022/12/11 05:16:07;;;;;;;27.77;12.82;;;;;;;1.07;100.00;100915.44;5046404;28;20034;-72
2022/12/11 05:18:33;;;;;;;24.73;12.00;;;;;;;1.10;100.00;100913.03;5053946;28;20522;-73
2022/12/11 05:21:04;;;;;;;27.60;13.75;;;;;;;1.06;100.00;100916.25;5052199;28;20099;-73
2022/12/11 05:23:30;;;;;;;23.40;11.32;;;;;;;1.04;100.00;100920.47;5052921;28;20064;-72
2022/12/11 05:25:58;;;;;;;24.40;11.52;;;;;;;1.07;100.00;100905.09;5045362;28;20047;-73
2022/12/11 05:28:26;;;;;;;24.75;11.48;;;;;;;1.03;100.00;100910.91;5064949;28;20051;-72
2022/12/11 05:30:59;;;;;;;21.90;11.48;;;;;;;1.09;100.00;100909.53;5046844;28;20389;-73
2022/12/11 05:33:25;;;;;;;26.58;12.32;;;;;;;1.02;100.00;100902.25;5045689;28;20069;-73
2022/12/11 05:35:50;;;;;;;21.85;11.30;;;;;;;1.05;100.00;100901.53;5047950;28;20032;-74
2022/12/11 05:38:16;;;;;;;21.63;11.20;;;;;;;1.06;100.00;100893.84;5047852;28;20043;-72
2022/12/11 05:40:41;;;;;;;23.50;10.27;;;;;;;1.06;100.00;100893.84;5045229;28;20487;-73
2022/12/11 05:43:07;;;;;;;18.67;9.75;;;;;;;1.07;100.00;100897.31;5050109;28;20082;-73
2022/12/11 05:45:33;;;;;;;20.83;10.85;;;;;;;1.05;100.00;100896.34;5053571;28;20417;-73
2022/12/11 05:47:58;;;;;;;22.90;10.80;;;;;;;1.04;100.00;100895.44;5043479;28;20032;-73
2022/12/11 05:50:23;;;;;;;23.92;11.48;;;;;;;1.05;100.00;100892.03;5047728;28;20090;-72
2022/12/11 05:52:48;;;;;;;21.73;10.63;;;;;;;1.05;100.00;100891.16;5044929;28;20487;-71
2022/12/11 05:55:14;;;;;;;23.40;11.27;;;;;;;1.03;100.00;100892.75;5044815;28;20017;-72
2022/12/11 05:57:40;;;;;;;20.90;11.07;;;;;;;1.04;100.00;100898.03;5045235;28;20503;-72
2022/12/11 06:00:05;;;;;;;17.55;10.10;;;;;;;1.03;100.00;100895.34;5043886;28;20048;-71
2022/12/11 06:02:34;;;;;;;24.80;11.70;;;;;;;1.04;100.00;100897.16;5042733;28;20472;-72
2022/12/11 06:04:59;;;;;;;22.30;10.82;;;;;;;1.06;100.00;100893.84;5047427;28;20020;-73
2022/12/11 06:07:24;;;;;;;24.30;11.20;;;;;;;1.04;100.00;100890.25;5066000;28;20027;-73
2022/12/11 06:09:50;;;;;;;20.65;10.50;;;;;;;1.06;100.00;100896.44;5043442;28;20464;-73
2022/12/11 06:12:15;;;;;;;20.88;11.25;;;;;;;1.09;100.00;100899.19;5048285;28;20534;-72
2022/12/11 06:14:41;;;;;;;20.58;10.65;;;;;;;1.12;100.00;100893.28;5053677;28;20479;-72
2022/12/11 06:17:06;;;;;;;24.05;11.38;;;;;;;1.09;100.00;100900.91;5042879;28;20028;-72
2022/12/11 06:19:31;;;;;;;20.83;10.55;;;;;;;1.04;100.00;100898.03;5043484;28;20028;-72
2022/12/11 06:21:57;;;;;;;23.15;11.23;;;;;;;1.03;100.00;100901.41;5044063;28;20086;-71
2022/12/11 06:24:22;;;;;;;22.45;11.13;;;;;;;1.03;100.00;100898.81;5044378;28;20366;-72
2022/12/11 06:26:47;;;;;;;26.00;11.60;;;;;;;1.04;100.00;100899.75;5049046;28;20502;-73
2022/12/11 06:29:13;;;;;;;29.80;12.60;;;;;;;1.04;100.00;100899.75;5047818;28;20491;-72
2022/12/11 06:31:38;;;;;;;24.95;11.68;;;;;;;1.05;100.00;100906.72;5045853;28;20029;-72
2022/12/11 06:34:03;;;;;;;26.50;12.13;;;;;;;1.02;100.00;100907.44;5046639;28;20017;-72
2022/12/11 06:36:29;;;;;;;27.98;11.70;;;;;;;1.01;100.00;100903.94;5049282;28;20060;-74
2022/12/11 06:38:54;;;;;;;26.00;12.35;;;;;;;1.00;100.00;100899.56;5051016;28;20052;-71
2022/12/11 06:41:20;;;;;;;26.55;13.02;;;;;;;0.98;100.00;100900.28;5067473;28;20059;-72
2022/12/11 06:43:45;;;;;;;25.63;11.52;;;;;;;0.97;100.00;100899.38;5050267;28;20059;-73
2022/12/11 06:46:14;;;;;;;23.70;11.55;;;;;;;0.96;100.00;100901.88;5059539;28;20068;-72
2022/12/11 06:48:43;;;;;;;26.02;12.40;;;;;;;0.93;100.00;100892.25;5045204;28;20423;-73
2022/12/11 06:51:12;;;;;;;26.70;12.32;;;;;;;0.91;100.00;100901.66;5042732;28;20461;-72
2022/12/11 06:53:37;;;;;;;28.60;13.82;;;;;;;0.93;100.00;100897.44;5045434;28;20098;-72
2022/12/11 06:56:10;;;;;;;32.13;13.40;;;;;;;0.89;100.00;100895.47;5041587;28;20030;-74
2022/12/11 06:58:36;;;;;;;32.33;14.23;;;;;;;0.91;100.00;100893.88;5048576;28;20053;-73
2022/12/11 07:01:03;;;;;;;26.88;13.07;;;;;;;0.89;100.00;100898.06;5035083;28;20025;-73
2022/12/11 07:03:29;;;;;;;36.65;14.45;;;;;;;0.85;100.00;100893.50;5031185;28;20029;-72
2022/12/11 07:05:59;;;;;;;36.38;15.05;;;;;;;0.86;100.00;100900.50;5053169;28;20028;-74
2022/12/11 07:08:27;;;;;;;29.23;13.20;;;;;;;0.84;100.00;100894.31;5061524;28;20032;-72
2022/12/11 07:10:52;;;;;;;30.63;13.73;;;;;;;0.86;100.00;100905.66;5050986;28;20025;-73
2022/12/11 07:13:17;;;;;;;30.17;13.73;;;;;;;0.82;100.00;100899.41;5063295;28;20358;-69
2022/12/11 07:15:43;;;;;;;32.83;14.48;;;;;;;0.81;100.00;100900.25;5045589;28;20482;-73
2022/12/11 07:18:09;;;;;;;30.75;13.77;;;;;;;0.83;100.00;100895.13;5032719;28;20025;-73
2022/12/11 07:20:35;;;;;;;26.17;13.27;;;;;;;0.81;100.00;100897.66;5036726;28;20469;-70
2022/12/11 07:23:00;;;;;;;31.25;12.43;;;;;;;0.79;100.00;100903.53;5036241;28;20032;-71
2022/12/11 07:25:25;;;;;;;34.33;14.27;;;;;;;0.77;100.00;100900.84;5043002;28;20025;-72
2022/12/11 07:27:51;;;;;;;25.58;13.38;;;;;;;0.73;100.00;100903.19;5047322;28;20025;-73
2022/12/11 07:30:16;;;;;;;31.55;14.45;;;;;;;0.71;100.00;100907.41;5049366;28;20036;-73
2022/12/11 07:32:41;;;;;;;30.83;15.32;;;;;;;0.70;100.00;100903.00;5052795;28;20029;-73
2022/12/11 07:35:07;;;;;;;30.70;13.45;;;;;;;0.65;100.00;100902.72;5054027;28;20396;-73
2022/12/11 07:37:33;;;;;;;29.25;14.32;;;;;;;0.63;100.00;100902.66;5052086;28;20056;-73
2022/12/11 07:39:58;;;;;;;33.38;14.73;;;;;;;0.61;100.00;100901.69;5048931;28;20033;-72
2022/12/11 07:42:23;;;;;;;38.45;14.35;;;;;;;0.55;100.00;100906.50;5047749;28;20017;-72
2022/12/11 07:44:49;;;;;;;32.72;14.30;;;;;;;0.53;100.00;100913.28;5046170;28;20017;-72
2022/12/11 07:47:14;;;;;;;32.30;14.77;;;;;;;0.49;100.00;100913.94;5045595;28;20045;-71
2022/12/11 07:49:39;;;;;;;29.52;13.95;;;;;;;0.45;100.00;100912.84;5047753;28;20048;-73
2022/12/11 07:52:05;;;;;;;28.10;13.32;;;;;;;0.42;100.00;100911.75;5046549;28;20025;-73
2022/12/11 07:54:30;;;;;;;32.42;13.30;;;;;;;0.37;100.00;100918.34;5045668;28;20025;-72
2022/12/11 07:56:56;;;;;;;34.42;13.90;;;;;;;0.33;100.00;100918.19;5047845;28;20033;-73
2022/12/11 07:59:21;;;;;;;29.88;13.02;;;;;;;0.29;100.00;100926.56;5045437;28;20060;-73
2022/12/11 08:01:47;;;;;;;32.38;14.82;;;;;;;0.29;100.00;100929.16;5045227;28;20420;-72
2022/12/11 08:04:14;;;;;;;35.10;14.80;;;;;;;0.30;100.00;100933.53;5045026;28;20372;-73
2022/12/11 08:06:41;;;;;;;38.28;15.38;;;;;;;0.30;100.00;100928.38;5048335;28;20021;-72
2022/12/11 08:09:09;;;;;;;32.05;14.00;;;;;;;0.31;100.00;100929.25;5048818;28;20047;-73
2022/12/11 08:11:34;;;;;;;33.00;14.43;;;;;;;0.32;100.00;100928.44;5048510;28;20032;-74
2022/12/11 08:14:00;;;;;;;31.23;14.90;;;;;;;0.38;100.00;100927.91;5045508;28;20500;-73
2022/12/11 08:16:25;;;;;;;34.25;13.90;;;;;;;0.45;100.00;100922.31;5060351;28;20028;-72
2022/12/11 08:18:51;;;;;;;31.77;14.40;;;;;;;0.50;100.00;100928.63;5043531;28;20040;-73
2022/12/11 08:21:22;;;;;;;30.73;14.25;;;;;;;0.55;100.00;100922.03;5042617;28;20033;-73
2022/12/11 08:23:48;;;;;;;38.17;14.32;;;;;;;0.60;100.00;100932.66;5047523;28;20068;-73
2022/12/11 08:26:16;;;;;;;33.92;14.32;;;;;;;0.66;100.00;100923.56;5042647;28;20112;-73
2022/12/11 08:28:42;;;;;;;30.77;13.77;;;;;;;0.67;100.00;100925.31;5038601;28;20061;-72
2022/12/11 08:31:09;;;;;;;33.40;14.10;;;;;;;0.69;100.00;100922.81;5040617;28;20579;-73
2022/12/11 08:33:36;;;;;;;32.40;13.50;;;;;;;0.73;100.00;100929.97;5048390;28;20538;-71
2022/12/11 08:36:03;;;;;;;24.33;12.20;;;;;;;0.81;100.00;100922.63;5053934;28;20512;-72
2022/12/11 08:38:29;;;;;;;26.80;12.85;;;;;;;0.84;100.00;100927.97;5045176;28;20196;-72
2022/12/11 08:40:54;;;;;;;28.67;12.95;;;;;;;0.84;100.00;100933.16;5047160;28;20432;-72
2022/12/11 08:43:19;;;;;;;27.83;12.60;;;;;;;0.90;100.00;100930.94;5047606;28;20029;-73
2022/12/11 08:45:45;;;;;;;30.85;13.00;;;;;;;0.93;100.00;100920.75;5044802;28;20029;-72
2022/12/11 08:48:11;;;;;;;27.38;12.73;;;;;;;0.95;100.00;100923.41;5046644;28;20113;-74
2022/12/11 08:50:36;;;;;;;31.75;13.32;;;;;;;1.00;100.00;100920.31;5048300;28;20017;-73
2022/12/11 08:53:02;;;;;;;28.60;13.32;;;;;;;1.08;100.00;100930.19;5045653;28;20551;-73
2022/12/11 08:55:27;;;;;;;26.15;12.65;;;;;;;1.07;100.00;100926.72;5047226;28;20029;-72
2022/12/11 08:57:52;;;;;;;26.77;12.32;;;;;;;1.11;100.00;100917.41;5042427;28;20382;-72
2022/12/11 09:00:21;;;;;;;25.65;13.90;;;;;;;1.14;100.00;100922.75;5050056;28;20378;-74
2022/12/11 09:02:47;;;;;;;29.35;13.40;;;;;;;1.14;100.00;100922.75;5050432;28;20414;-72
2022/12/11 09:05:12;;;;;;;21.80;12.25;;;;;;;1.18;100.00;100920.44;5044075;28;20071;-72
2022/12/11 09:07:38;;;;;;;32.67;14.30;;;;;;;1.17;100.00;100921.22;5042965;28;20033;-73
2022/12/11 09:10:08;;;;;;;27.13;12.75;;;;;;;1.23;100.00;100923.25;5051989;28;20029;-71
2022/12/11 09:12:34;;;;;;;28.20;14.77;;;;;;;1.22;100.00;100921.50;5045299;28;20025;-74
2022/12/11 09:15:03;;;;;;;33.20;13.55;;;;;;;1.29;100.00;100922.72;5043332;28;20103;-72
2022/12/11 09:17:28;;;;;;;30.88;14.52;;;;;;;1.29;100.00;100925.28;5048427;28;20029;-73
2022/12/11 09:19:53;;;;;;;27.83;12.80;;;;;;;1.32;100.00;100918.59;5049518;28;20024;-73
2022/12/11 09:22:19;;;;;;;28.02;13.90;;;;;;;1.38;100.00;100917.16;5046408;28;20033;-73
2022/12/11 09:24:46;;;;;;;31.20;13.98;;;;;;;1.37;100.00;100916.28;5046020;28;20021;-73
2022/12/11 09:27:12;;;;;;;27.92;13.65;;;;;;;1.42;100.00;100914.81;5046887;28;20417;-72
2022/12/11 09:29:38;;;;;;;33.20;14.65;;;;;;;1.41;100.00;100923.41;5032858;28;20087;-73
2022/12/11 09:32:03;;;;;;;32.67;16.40;;;;;;;1.47;100.00;100915.06;5031602;28;20108;-70
2022/12/11 09:34:29;;;;;;;33.05;15.75;;;;;;;1.48;100.00;100916.84;5036803;28;20113;-74
2022/12/11 09:36:57;;;;;;;40.25;15.93;;;;;;;1.52;100.00;100913.63;5039240;28;20025;-74
2022/12/11 09:39:22;;;;;;;36.30;14.95;;;;;;;1.52;100.00;100916.22;5049987;28;20522;-72
2022/12/11 09:42:03;;;;;;;35.25;15.70;;;;;;;1.56;100.00;100914.66;5038971;28;20033;-72
2022/12/11 09:44:34;;;;;;;31.08;15.57;;;;;;;1.60;100.00;100914.00;5039004;28;20037;-72
2022/12/11 09:47:11;;;;;;;31.42;15.75;;;;;;;1.59;100.00;100918.31;5035543;28;20036;-73
2022/12/11 09:49:41;;;;;;;32.85;14.45;;;;;;;1.64;100.00;100911.69;5050882;28;20103;-73
2022/12/11 09:52:24;;;;;;;35.20;15.73;;;;;;;1.69;100.00;100911.91;5035766;28;20021;-74
2022/12/11 09:54:58;;;;;;;28.35;14.30;;;;;;;1.72;100.00;100916.38;5037165;28;20025;-73
2022/12/11 09:57:41;;;;;;;30.73;14.88;;;;;;;1.75;100.00;100919.13;5037134;28;20485;-73
2022/12/11 10:00:19;;;;;;;32.65;15.35;;;;;;;1.82;100.00;100921.25;5049083;28;20056;-73
2022/12/11 10:02:53;;;;;;;33.40;13.80;;;;;;;1.83;100.00;100912.66;5044635;28;20047;-72
2022/12/11 10:05:29;;;;;;;31.13;14.02;;;;;;;1.89;100.00;100917.28;5035774;28;20037;-75
2022/12/11 10:08:00;;;;;;;29.55;13.65;;;;;;;1.89;100.00;100915.56;5042534;28;20021;-73
2022/12/11 10:11:02;;;;;;;29.00;13.95;;;;;;;1.93;100.00;100909.75;5042085;28;20103;-73
2022/12/11 10:13:41;;;;;;;29.77;14.65;;;;;;;1.92;100.00;100907.94;4980385;28;20038;-73
2022/12/11 10:16:38;;;;;;;28.80;14.10;;;;;;;1.99;100.00;100919.53;5058679;28;20072;-72
2022/12/11 10:19:04;;;;;;;35.42;16.05;;;;;;;1.94;100.00;100906.34;5035481;28;20040;-71
2022/12/11 10:21:40;;;;;;;34.78;15.68;;;;;;;1.91;100.00;100913.94;5045623;28;20132;-74
2022/12/11 10:24:15;;;;;;;38.03;16.55;;;;;;;1.91;100.00;100916.53;5041373;28;20041;-74
2022/12/11 10:26:40;;;;;;;36.70;16.10;;;;;;;1.92;100.00;100907.06;5052433;28;20135;-74
2022/12/11 10:29:13;;;;;;;36.92;15.75;;;;;;;1.99;100.00;100904.88;5047810;28;20087;-72
2022/12/11 10:31:50;;;;;;;34.83;16.83;;;;;;;1.96;100.00;100893.44;5035077;28;20021;-74
2022/12/11 10:34:38;;;;;;;37.72;16.15;;;;;;;2.00;100.00;100898.84;5045784;28;20025;-73
2022/12/11 10:37:04;;;;;;;33.38;16.25;;;;;;;2.00;100.00;100896.25;5040065;28;20070;-73
2022/12/11 10:39:30;;;;;;;38.25;16.95;;;;;;;1.99;100.00;100896.19;5049225;28;20063;-72
2022/12/11 10:41:56;;;;;;;36.88;17.50;;;;;;;1.94;100.00;100889.84;5051999;28;20031;-72
2022/12/11 10:44:25;;;;;;;34.78;17.27;;;;;;;1.99;100.00;100894.50;5037420;28;20029;-73
2022/12/11 10:47:09;;;;;;;37.92;16.15;;;;;;;2.00;100.00;100888.47;5043385;28;20037;-73
2022/12/11 10:49:36;;;;;;;34.85;17.20;;;;;;;1.97;100.00;100888.31;5047126;28;20078;-71
2022/12/11 10:52:10;;;;;;;37.65;16.38;;;;;;;1.89;100.00;100886.16;5044480;28;20060;-73
2022/12/11 10:54:38;;;;;;;36.40;17.65;;;;;;;1.91;100.00;100881.91;5048578;28;20086;-72
2022/12/11 10:57:07;;;;;;;40.33;16.38;;;;;;;1.96;100.00;100878.75;5043536;28;20511;-72
2022/12/11 10:59:39;;;;;;;38.83;16.13;;;;;;;2.01;100.00;100877.28;5041056;28;20091;-73
2022/12/11 11:02:16;;;;;;;33.83;16.98;;;;;;;2.06;100.00;100879.22;5036189;28;20481;-71
2022/12/11 11:04:43;;;;;;;32.83;16.02;;;;;;;2.03;100.00;100879.97;5050115;28;20070;-74
2022/12/11 11:07:23;;;;;;;32.95;16.48;;;;;;;2.10;100.00;100881.16;5053480;28;20033;-72
2022/12/11 11:09:50;;;;;;;31.63;14.65;;;;;;;2.10;100.00;100881.16;5060829;28;20069;-72
2022/12/11 11:12:18;;;;;;;31.30;15.00;;;;;;;2.12;100.00;100871.78;5061720;28;20028;-73
2022/12/11 11:14:43;;;;;;;27.25;14.57;;;;;;;2.20;100.00;100870.44;5058955;28;20358;-73
2022/12/11 11:17:13;;;;;;;29.10;14.05;;;;;;;2.23;100.00;100870.59;5054293;28;20032;-73
2022/12/11 11:19:39;;;;;;;30.23;15.02;;;;;;;2.27;100.00;100869.94;5050180;28;20489;-74
2022/12/11 11:22:11;;;;;;;32.08;14.55;;;;;;;2.42;100.00;100871.53;5052567;28;20040;-72
2022/12/11 11:24:43;;;;;;;31.38;14.80;;;;;;;2.43;100.00;100870.69;5058543;28;20028;-73
2022/12/11 11:27:28;;;;;;;27.88;13.55;;;;;;;2.40;100.00;100866.28;5058288;28;20111;-73